createdAt,value
2017-07-19T03:52:59.202Z,12.03
2017-07-19T03:55:25.982Z,16.57
2017-07-19T03:57:52.755Z,14.00
2017-07-19T04:00:19.571Z,12.20
2017-07-19T04:02:46.344Z,11.10
2017-07-19T04:05:13.097Z,11.57
2017-07-19T04:07:39.910Z,14.17
2017-07-19T04:10:06.711Z,13.97
2017-07-19T04:12:33.476Z,12.47
2017-07-19T04:15:00.293Z,12.07
2017-07-19T04:17:27.055Z,17.23
2017-07-19T04:19:53.807Z,10.50
2017-07-19T04:22:20.616Z,16.03
2017-07-19T04:24:47.590Z,12.93
2017-07-19T04:27:14.340Z,11.70
2017-07-19T04:29:41.732Z,13.43
2017-07-19T04:32:08.503Z,10.20
2017-07-19T04:34:35.279Z,12.80
2017-07-19T04:37:02.067Z,10.07
2017-07-19T04:39:28.847Z,15.77
2017-07-19T04:41:55.609Z,9.90
2017-07-19T04:44:22.414Z,18.80
2017-07-19T04:46:49.170Z,14.80
2017-07-19T04:49:15.930Z,9.67
2017-07-19T04:51:42.734Z,14.83
2017-07-19T04:54:09.509Z,13.20
2017-07-19T04:56:36.970Z,10.67
2017-07-19T04:59:03.769Z,11.87
2017-07-19T05:01:30.507Z,12.30
2017-07-19T05:03:57.251Z,10.53
2017-07-19T05:06:24.402Z,17.23
2017-07-19T05:08:51.150Z,10.10
2017-07-19T05:11:17.914Z,9.60
2017-07-19T05:13:44.718Z,12.80
2017-07-19T05:16:11.569Z,13.30
2017-07-19T05:18:39.140Z,13.43
2017-07-19T05:21:05.950Z,13.00
2017-07-19T05:23:33.038Z,16.73
2017-07-19T05:25:59.804Z,9.47
2017-07-19T05:28:26.591Z,14.63
2017-07-19T05:30:54.046Z,14.80
2017-07-19T05:33:20.787Z,13.93
2017-07-19T05:35:47.567Z,14.10
2017-07-19T05:38:14.307Z,9.00
2017-07-19T05:40:41.060Z,16.33
2017-07-19T05:43:07.843Z,11.80
2017-07-19T05:45:34.603Z,12.27
2017-07-19T05:48:01.642Z,13.60
2017-07-19T05:50:28.424Z,10.93
2017-07-19T05:52:55.189Z,12.80
2017-07-19T05:55:21.959Z,9.70
2017-07-19T05:57:48.751Z,10.30
2017-07-19T06:00:15.527Z,11.77
2017-07-19T06:02:42.531Z,13.63
2017-07-19T06:05:09.441Z,7.10
2017-07-19T06:07:36.192Z,10.30
2017-07-19T06:10:02.937Z,8.77
2017-07-19T06:12:29.719Z,11.63
2017-07-19T06:14:56.466Z,11.93
2017-07-19T06:17:23.219Z,8.30
2017-07-19T06:19:50.224Z,16.87
2017-07-19T06:22:17.623Z,10.43
2017-07-19T06:24:44.376Z,13.17
2017-07-19T06:27:11.159Z,11.97
2017-07-19T06:29:37.943Z,8.00
2017-07-19T06:32:04.702Z,11.23
2017-07-19T06:34:31.494Z,10.00
2017-07-19T06:36:58.265Z,10.10
2017-07-19T06:39:25.047Z,9.20
2017-07-19T06:41:51.835Z,12.53
2017-07-19T06:44:19.322Z,11.80
2017-07-19T06:46:46.078Z,14.30
2017-07-19T06:49:12.886Z,7.43
2017-07-19T06:51:39.645Z,10.80
2017-07-19T06:54:06.391Z,8.63
2017-07-19T06:56:33.212Z,10.30
2017-07-19T06:58:59.955Z,8.97
2017-07-19T07:01:26.723Z,12.43
2017-07-19T07:03:53.512Z,7.83
2017-07-19T07:06:20.278Z,10.00
2017-07-19T07:08:47.014Z,9.10
2017-07-19T07:11:14.123Z,7.40
2017-07-19T07:13:40.910Z,9.03
2017-07-19T07:16:10.532Z,9.07
2017-07-19T07:18:37.327Z,10.60
2017-07-19T07:21:04.086Z,7.70
2017-07-19T07:23:30.842Z,13.10
2017-07-19T07:25:58.228Z,7.40
2017-07-19T07:28:24.983Z,6.50
2017-07-19T07:30:51.748Z,11.20
2017-07-19T07:33:18.746Z,7.93
2017-07-19T07:35:45.515Z,10.20
2017-07-19T07:38:12.275Z,7.13
2017-07-19T07:40:39.063Z,9.97
2017-07-19T07:43:05.794Z,8.73
2017-07-19T07:45:32.538Z,9.40
2017-07-19T07:47:59.311Z,9.87
2017-07-19T07:50:26.086Z,8.87
2017-07-19T07:52:52.838Z,6.90
2017-07-19T07:55:19.898Z,6.87
2017-07-19T07:57:46.655Z,10.93
2017-07-19T08:00:13.419Z,5.57
2017-07-19T08:02:40.216Z,5.67
2017-07-19T08:05:06.989Z,8.70
2017-07-19T08:07:33.750Z,15.73
2017-07-19T08:10:00.554Z,6.53
2017-07-19T08:12:27.303Z,10.70
2017-07-19T08:14:54.043Z,6.73
2017-07-19T08:17:20.830Z,11.77
2017-07-19T08:19:47.580Z,7.90
2017-07-19T08:22:14.355Z,8.73
2017-07-19T08:24:41.136Z,11.90
2017-07-19T08:27:07.919Z,8.53
2017-07-19T08:29:34.679Z,7.77
2017-07-19T08:32:01.602Z,5.30
2017-07-19T08:34:28.373Z,7.73
2017-07-19T08:36:55.127Z,10.43
2017-07-19T08:39:22.017Z,10.43
2017-07-19T08:41:48.788Z,11.07
2017-07-19T08:44:15.548Z,7.30
2017-07-19T08:46:42.350Z,5.90
2017-07-19T08:49:09.111Z,9.00
2017-07-19T08:51:35.882Z,13.03
2017-07-19T08:54:02.681Z,10.73
2017-07-19T08:56:29.434Z,7.97
2017-07-19T08:58:56.196Z,6.50
2017-07-19T09:01:23.010Z,12.30
2017-07-19T09:03:49.752Z,6.33
2017-07-19T09:06:16.513Z,7.50
2017-07-19T09:08:43.309Z,8.70
2017-07-19T09:11:10.056Z,6.60
2017-07-19T09:13:36.827Z,8.23
2017-07-19T09:16:03.623Z,17.53
2017-07-19T09:18:30.397Z,16.30
2017-07-19T09:20:57.140Z,8.53
2017-07-19T09:23:23.938Z,15.80
2017-07-19T09:25:50.671Z,6.73
2017-07-19T09:28:17.721Z,8.40
2017-07-19T09:30:44.538Z,8.27
2017-07-19T09:33:11.282Z,8.27
2017-07-19T09:35:38.036Z,11.93
2017-07-19T09:38:04.819Z,8.80
2017-07-19T09:40:31.612Z,7.60
2017-07-19T09:42:58.451Z,8.93
2017-07-19T09:45:25.263Z,7.17
2017-07-19T09:47:52.035Z,7.47
2017-07-19T09:50:18.795Z,9.40
2017-07-19T09:52:45.591Z,6.63
2017-07-19T09:55:12.576Z,7.83
2017-07-19T09:57:39.320Z,6.60
2017-07-19T10:00:06.114Z,9.10
2017-07-19T10:02:32.860Z,7.73
2017-07-19T10:04:59.614Z,5.80
2017-07-19T10:07:26.402Z,8.10
2017-07-19T10:09:53.181Z,15.30
2017-07-19T10:12:19.942Z,7.73
2017-07-19T10:14:47.061Z,9.03
2017-07-19T10:17:13.805Z,7.90
2017-07-19T10:19:40.636Z,15.07
2017-07-19T10:22:07.463Z,10.13
2017-07-19T10:24:34.223Z,7.90
2017-07-19T10:27:00.994Z,8.63
2017-07-19T10:29:27.763Z,8.10
2017-07-19T10:31:54.530Z,6.57
2017-07-19T10:34:21.286Z,9.47
2017-07-19T10:36:48.091Z,6.83
2017-07-19T10:39:14.865Z,10.00
2017-07-19T10:41:41.620Z,10.27
2017-07-19T10:44:08.426Z,8.77
2017-07-19T10:46:35.471Z,8.30
2017-07-19T10:49:02.242Z,7.33
2017-07-19T10:51:29.034Z,7.77
2017-07-19T10:53:55.772Z,6.83
2017-07-19T10:56:23.063Z,7.40
2017-07-19T10:58:49.858Z,7.00
2017-07-19T11:01:16.642Z,7.40
2017-07-19T11:03:43.410Z,6.87
2017-07-19T11:06:10.184Z,7.70
2017-07-19T11:08:37.254Z,8.10
2017-07-19T11:11:03.992Z,9.40
2017-07-19T11:13:30.771Z,9.03
2017-07-19T11:15:57.535Z,6.77
2017-07-19T11:18:24.297Z,6.70
2017-07-19T11:20:51.082Z,7.20
2017-07-19T11:23:17.828Z,8.93
2017-07-19T11:25:44.634Z,6.60
2017-07-19T11:28:11.407Z,6.33
2017-07-19T11:30:38.143Z,6.10
2017-07-19T11:33:04.901Z,7.47
2017-07-19T11:35:32.045Z,7.83
2017-07-19T11:37:58.814Z,7.97
2017-07-19T11:40:25.557Z,7.60
2017-07-19T11:42:52.353Z,10.33
2017-07-19T11:45:19.113Z,16.00
2017-07-19T11:47:45.879Z,11.47
2017-07-19T11:50:12.653Z,9.00
2017-07-19T11:52:39.423Z,12.00
2017-07-19T11:55:06.192Z,14.43
2017-07-19T11:57:32.983Z,11.30
2017-07-19T11:59:59.753Z,8.10
2017-07-19T12:02:26.519Z,9.70
2017-07-19T12:04:53.318Z,7.23
2017-07-19T12:07:20.096Z,7.93
2017-07-19T12:09:46.862Z,11.80
2017-07-19T12:12:13.667Z,16.10
2017-07-19T12:14:40.427Z,8.83
2017-07-19T12:17:07.182Z,8.13
2017-07-19T12:19:33.983Z,12.13
2017-07-19T12:22:00.724Z,8.67
2017-07-19T12:24:27.473Z,10.13
2017-07-19T12:26:54.262Z,16.53
2017-07-19T12:29:21.001Z,8.90
2017-07-19T12:31:47.784Z,11.13
2017-07-19T12:34:14.594Z,8.37
2017-07-19T12:36:41.363Z,16.27
2017-07-19T12:39:08.107Z,9.63
2017-07-19T12:41:34.884Z,7.40
2017-07-19T12:44:01.652Z,10.00
2017-07-19T12:46:28.392Z,10.13
2017-07-19T12:48:55.192Z,7.47
2017-07-19T12:51:21.948Z,10.23
2017-07-19T12:53:48.714Z,12.77
2017-07-19T12:56:15.510Z,8.77
2017-07-19T12:58:42.286Z,12.67
2017-07-19T13:01:09.024Z,9.37
2017-07-19T13:03:35.815Z,9.83
2017-07-19T13:06:02.582Z,8.03
2017-07-19T13:08:29.315Z,8.10
2017-07-19T13:10:56.122Z,12.10
2017-07-19T13:13:23.362Z,6.83
2017-07-19T13:15:50.104Z,16.03
2017-07-19T13:18:16.922Z,12.23
2017-07-19T13:20:43.663Z,9.10
2017-07-19T13:23:10.422Z,10.50
2017-07-19T13:25:37.230Z,8.03
2017-07-19T13:28:03.964Z,8.63
2017-07-19T13:30:30.726Z,11.43
2017-07-19T13:32:57.524Z,9.83
2017-07-19T13:35:24.296Z,8.97
2017-07-19T13:37:51.053Z,13.10
2017-07-19T13:40:18.184Z,10.07
2017-07-19T13:42:44.942Z,9.33
2017-07-19T13:45:11.694Z,9.53
2017-07-19T13:47:38.488Z,11.70
2017-07-19T13:50:05.262Z,9.20
2017-07-19T13:52:32.054Z,13.23
2017-07-19T13:54:58.850Z,7.13
2017-07-19T13:57:25.618Z,7.73
2017-07-19T13:59:52.371Z,16.90
2017-07-19T14:02:19.174Z,13.47
2017-07-19T14:04:45.935Z,10.47
2017-07-19T14:07:12.696Z,7.90
2017-07-19T14:09:39.487Z,7.00
2017-07-19T14:12:06.224Z,8.50
2017-07-19T14:14:32.991Z,7.80
2017-07-19T14:16:59.786Z,7.43
2017-07-19T14:19:26.550Z,10.63
2017-07-19T14:21:53.310Z,7.60
2017-07-19T14:24:20.085Z,8.93
2017-07-19T14:26:46.854Z,11.77
2017-07-19T14:29:13.596Z,8.50
2017-07-19T14:31:40.400Z,9.33
2017-07-19T14:34:07.659Z,8.87
2017-07-19T14:36:34.415Z,9.00
2017-07-19T14:39:01.291Z,9.83
2017-07-19T14:41:28.028Z,9.93
2017-07-19T14:43:54.790Z,10.97
2017-07-19T14:46:21.594Z,10.23
2017-07-19T14:48:48.675Z,11.07
2017-07-19T14:51:15.453Z,9.50
2017-07-19T14:53:42.252Z,8.30
2017-07-19T14:56:09.014Z,6.53
2017-07-19T14:58:35.771Z,6.93
2017-07-19T15:01:02.926Z,12.50
2017-07-19T15:03:29.695Z,10.00
2017-07-19T15:05:56.484Z,12.57
2017-07-19T15:08:23.311Z,11.20
2017-07-19T15:10:50.095Z,12.10
2017-07-19T15:13:16.858Z,13.00
2017-07-19T15:15:43.660Z,9.90
2017-07-19T15:18:10.427Z,9.83
2017-07-19T15:20:37.186Z,10.87
2017-07-19T15:23:03.978Z,7.77
2017-07-19T15:25:30.730Z,11.87
2017-07-19T15:27:58.184Z,9.30
2017-07-19T15:30:24.991Z,14.03
2017-07-19T15:32:51.754Z,12.97
2017-07-19T15:35:18.596Z,10.70
2017-07-19T15:37:45.371Z,8.00
2017-07-19T15:40:12.128Z,10.07
2017-07-19T15:42:38.868Z,9.30
2017-07-19T15:45:05.670Z,17.50
2017-07-19T15:47:32.445Z,11.87
2017-07-19T15:49:59.226Z,10.83
2017-07-19T15:52:26.754Z,10.30
2017-07-19T15:54:53.510Z,7.33
2017-07-19T15:57:20.810Z,9.10
2017-07-19T15:59:47.612Z,10.10
2017-07-19T16:02:14.371Z,8.47
2017-07-19T16:04:41.144Z,9.53
2017-07-19T16:07:07.934Z,9.73
2017-07-19T16:09:34.679Z,11.97
2017-07-19T16:12:01.421Z,10.63
2017-07-19T16:14:28.199Z,10.13
2017-07-19T16:16:54.954Z,8.93
2017-07-19T16:19:21.727Z,8.60
2017-07-19T16:21:48.570Z,14.30
2017-07-19T16:24:15.308Z,9.97
2017-07-19T16:26:42.063Z,8.57
2017-07-19T16:29:08.870Z,10.23
2017-07-19T16:31:35.625Z,8.07
2017-07-19T16:34:02.372Z,9.20
2017-07-19T16:36:29.149Z,7.50
2017-07-19T16:38:55.928Z,9.10
2017-07-19T16:41:22.667Z,8.10
2017-07-19T16:43:49.454Z,8.63
2017-07-19T16:46:16.230Z,9.30
2017-07-19T16:48:42.970Z,7.97
2017-07-19T16:51:09.771Z,17.93
2017-07-19T16:53:36.536Z,12.87
2017-07-19T16:56:03.296Z,9.10
2017-07-19T16:58:30.110Z,6.97
2017-07-19T17:00:57.172Z,9.20
2017-07-19T17:03:23.924Z,7.87
2017-07-19T17:05:50.701Z,7.77
2017-07-19T17:08:18.162Z,8.77
2017-07-19T17:10:44.928Z,11.67
2017-07-19T17:13:11.703Z,8.27
2017-07-19T17:15:38.455Z,15.87
2017-07-19T17:18:05.200Z,9.43
2017-07-19T17:20:31.984Z,12.70
2017-07-19T17:22:58.756Z,8.93
2017-07-19T17:25:25.526Z,10.50
2017-07-19T17:27:52.316Z,13.07
2017-07-19T17:30:19.079Z,9.53
2017-07-19T17:32:45.820Z,10.80
2017-07-19T17:35:14.223Z,10.43
2017-07-19T17:37:40.968Z,18.20
2017-07-19T17:40:07.738Z,16.33
2017-07-19T17:42:34.538Z,12.57
2017-07-19T17:45:01.296Z,9.90
2017-07-19T17:47:28.032Z,11.70
2017-07-19T17:49:54.834Z,12.07
2017-07-19T17:52:21.598Z,9.17
2017-07-19T17:54:48.353Z,15.40
2017-07-19T17:57:15.131Z,16.17
2017-07-19T17:59:41.884Z,15.10
2017-07-19T18:02:08.674Z,14.00
2017-07-19T18:04:35.478Z,12.10
2017-07-19T18:07:02.256Z,14.83
2017-07-19T18:09:29.776Z,9.20
2017-07-19T18:11:56.561Z,10.40
2017-07-19T18:14:23.304Z,7.90
2017-07-19T18:16:50.067Z,10.87
2017-07-19T18:19:16.853Z,11.13
2017-07-19T18:21:44.496Z,11.10
2017-07-19T18:24:11.291Z,16.80
2017-07-19T18:26:38.095Z,11.30
2017-07-19T18:29:04.836Z,13.27
2017-07-19T18:31:31.591Z,11.50
2017-07-19T18:33:58.385Z,12.17
2017-07-19T18:36:25.149Z,12.67
2017-07-19T18:38:51.923Z,10.00
2017-07-19T18:41:18.718Z,12.90
2017-07-19T18:43:45.495Z,13.37
2017-07-19T18:46:12.270Z,8.90
2017-07-19T18:48:39.090Z,13.07
2017-07-19T18:51:05.852Z,11.07
2017-07-19T18:53:33.068Z,8.60
2017-07-19T18:55:59.896Z,10.23
2017-07-19T18:58:26.679Z,12.10
2017-07-19T19:00:53.427Z,11.77
2017-07-19T19:03:20.591Z,11.63
2017-07-19T19:05:47.358Z,9.33
2017-07-19T19:08:14.449Z,16.60
2017-07-19T19:10:41.266Z,12.70
2017-07-19T19:13:08.027Z,12.77
2017-07-19T19:15:34.789Z,9.60
2017-07-19T19:18:02.177Z,10.63
2017-07-19T19:20:28.936Z,7.97
2017-07-19T19:22:55.695Z,9.80
2017-07-19T19:25:23.190Z,8.60
2017-07-19T19:27:50.678Z,11.13
2017-07-19T19:30:17.419Z,12.63
2017-07-19T19:32:44.227Z,11.03
2017-07-19T19:35:10.979Z,10.27
2017-07-19T19:37:38.240Z,14.60
2017-07-19T19:40:05.061Z,11.57
2017-07-19T19:42:31.868Z,11.20
2017-07-19T19:44:58.645Z,11.27
2017-07-19T19:47:25.447Z,14.57
2017-07-19T19:49:52.218Z,12.57
2017-07-19T19:52:18.994Z,16.97
2017-07-19T19:54:45.789Z,16.07
2017-07-19T19:57:12.558Z,14.87
2017-07-19T19:59:39.349Z,13.87
2017-07-19T20:02:06.194Z,12.47
2017-07-19T20:04:32.974Z,14.50
2017-07-19T20:06:59.712Z,16.37
2017-07-19T20:09:26.543Z,11.70
2017-07-19T20:11:53.291Z,10.23
2017-07-19T20:14:20.034Z,12.17
2017-07-19T20:16:46.860Z,13.97
2017-07-19T20:19:13.604Z,15.07
2017-07-19T20:21:40.356Z,12.77
2017-07-19T20:24:07.179Z,17.80
2017-07-19T20:26:33.941Z,14.87
2017-07-19T20:29:00.714Z,15.57
2017-07-19T20:31:27.504Z,15.60
2017-07-19T20:33:54.247Z,11.17
2017-07-19T20:36:21.008Z,12.07
2017-07-19T20:38:47.807Z,13.50
2017-07-19T20:41:15.170Z,20.00
2017-07-19T20:43:42.524Z,16.03
2017-07-19T20:46:09.317Z,18.50
2017-07-19T20:48:36.083Z,15.17
2017-07-19T20:51:02.851Z,14.10
2017-07-19T20:53:29.650Z,19.30
2017-07-19T20:55:56.427Z,14.53
2017-07-19T20:58:23.202Z,16.10
2017-07-19T21:00:50.000Z,23.17
2017-07-19T21:03:17.165Z,21.30
2017-07-19T21:05:43.912Z,14.37
2017-07-19T21:08:11.675Z,14.10
2017-07-19T21:10:38.426Z,17.30
2017-07-19T21:13:05.199Z,16.53
2017-07-19T21:15:31.979Z,14.37
2017-07-19T21:17:58.807Z,14.10
2017-07-19T21:20:25.556Z,18.80
2017-07-19T21:22:52.355Z,17.50
2017-07-19T21:25:19.119Z,24.07
2017-07-19T21:27:45.899Z,19.60
2017-07-19T21:30:12.760Z,17.40
2017-07-19T21:32:39.509Z,23.93
2017-07-19T21:35:06.282Z,21.20
2017-07-19T21:37:33.088Z,37.87
2017-07-19T21:40:00.052Z,42.13
2017-07-19T21:42:26.821Z,40.90
2017-07-19T21:44:53.626Z,43.43
2017-07-19T21:47:20.378Z,48.70
2017-07-19T21:49:47.136Z,34.33
2017-07-19T21:52:13.934Z,38.80
2017-07-19T21:54:41.418Z,32.27
2017-07-19T21:57:08.195Z,35.10
2017-07-19T21:59:34.999Z,27.23
2017-07-19T22:02:01.743Z,30.60
2017-07-19T22:04:28.517Z,28.47
2017-07-19T22:06:55.593Z,27.90
2017-07-19T22:09:22.366Z,24.77
2017-07-19T22:11:49.554Z,19.10
2017-07-19T22:14:16.343Z,26.53
2017-07-19T22:16:43.119Z,27.00
2017-07-19T22:19:09.872Z,18.73
